sensor_id;sensor_type;location;lat;lon;timestamp;temperature;humidity
14475;DHT22;7323;50.848;4.334;2023-04-24T00:00:37;10.50;99.90
14475;DHT22;7323;50.848;4.334;2023-04-24T00:03:07;10.40;99.90
14475;DHT22;7323;50.848;4.334;2023-04-24T00:05:34;10.30;99.90
14475;DHT22;7323;50.848;4.334;2023-04-24T00:08:00;10.30;99.90
14475;DHT22;7323;50.848;4.334;2023-04-24T00:10:32;10.30;99.90
14475;DHT22;7323;50.848;4.334;2023-04-24T00:13:01;10.40;99.90
14475;DHT22;7323;50.848;4.334;2023-04-24T00:15:30;10.20;99.90
14475;DHT22;7323;50.848;4.334;2023-04-24T00:17:56;10.10;99.90
14475;DHT22;7323;50.848;4.334;2023-04-24T00:20:27;10.00;99.90
14475;DHT22;7323;50.848;4.334;2023-04-24T00:23:05;10.00;99.90
14475;DHT22;7323;50.848;4.334;2023-04-24T00:25:39;10.00;99.90
14475;DHT22;7323;50.848;4.334;2023-04-24T00:28:10;10.00;99.90
14475;DHT22;7323;50.848;4.334;2023-04-24T00:30:41;10.10;99.90
14475;DHT22;7323;50.848;4.334;2023-04-24T00:33:49;10.10;99.90
14475;DHT22;7323;50.848;4.334;2023-04-24T00:36:17;10.00;99.90
14475;DHT22;7323;50.848;4.334;2023-04-24T00:38:58;10.00;99.90
14475;DHT22;7323;50.848;4.334;2023-04-24T00:41:25;10.00;99.90
14475;DHT22;7323;50.848;4.334;2023-04-24T00:43:54;10.10;99.90
14475;DHT22;7323;50.848;4.334;2023-04-24T00:46:24;10.20;99.90
14475;DHT22;7323;50.848;4.334;2023-04-24T00:48:50;10.10;99.90
14475;DHT22;7323;50.848;4.334;2023-04-24T00:51:16;10.00;99.90
14475;DHT22;7323;50.848;4.334;2023-04-24T00:53:45;10.00;99.90
14475;DHT22;7323;50.848;4.334;2023-04-24T00:56:18;10.00;99.90
14475;DHT22;7323;50.848;4.334;2023-04-24T00:58:44;10.10;99.90
14475;DHT22;7323;50.848;4.334;2023-04-24T01:01:11;10.10;99.90
14475;DHT22;7323;50.848;4.334;2023-04-24T01:03:37;10.20;99.90
14475;DHT22;7323;50.848;4.334;2023-04-24T01:06:04;10.20;99.90
14475;DHT22;7323;50.848;4.334;2023-04-24T01:08:31;10.10;99.90
14475;DHT22;7323;50.848;4.334;2023-04-24T01:10:59;10.10;99.90
14475;DHT22;7323;50.848;4.334;2023-04-24T01:13:26;10.00;99.90
14475;DHT22;7323;50.848;4.334;2023-04-24T01:15:55;10.00;99.90
14475;DHT22;7323;50.848;4.334;2023-04-24T01:18:21;10.00;99.90
14475;DHT22;7323;50.848;4.334;2023-04-24T01:20:48;10.00;99.90
14475;DHT22;7323;50.848;4.334;2023-04-24T01:23:17;9.80;99.90
14475;DHT22;7323;50.848;4.334;2023-04-24T01:25:43;9.90;99.90
14475;DHT22;7323;50.848;4.334;2023-04-24T01:28:11;9.90;99.90
14475;DHT22;7323;50.848;4.334;2023-04-24T01:30:42;9.90;99.90
14475;DHT22;7323;50.848;4.334;2023-04-24T01:33:11;9.90;99.90
14475;DHT22;7323;50.848;4.334;2023-04-24T01:35:40;9.80;99.90
14475;DHT22;7323;50.848;4.334;2023-04-24T01:38:12;9.90;99.90
14475;DHT22;7323;50.848;4.334;2023-04-24T01:40:41;9.90;99.90
14475;DHT22;7323;50.848;4.334;2023-04-24T01:43:12;9.90;99.90
14475;DHT22;7323;50.848;4.334;2023-04-24T01:45:44;9.90;99.90
14475;DHT22;7323;50.848;4.334;2023-04-24T01:48:12;9.80;99.90
14475;DHT22;7323;50.848;4.334;2023-04-24T01:50:51;9.80;99.90
14475;DHT22;7323;50.848;4.334;2023-04-24T01:53:25;9.70;99.90
14475;DHT22;7323;50.848;4.334;2023-04-24T01:56:12;9.70;99.90
14475;DHT22;7323;50.848;4.334;2023-04-24T01:58:43;9.80;99.90
14475;DHT22;7323;50.848;4.334;2023-04-24T02:01:17;9.90;99.90
14475;DHT22;7323;50.848;4.334;2023-04-24T02:03:47;9.90;99.90
14475;DHT22;7323;50.848;4.334;2023-04-24T02:06:13;9.80;99.90
14475;DHT22;7323;50.848;4.334;2023-04-24T02:08:39;9.80;99.90
14475;DHT22;7323;50.848;4.334;2023-04-24T02:11:05;9.80;99.90
14475;DHT22;7323;50.848;4.334;2023-04-24T02:13:31;9.80;99.90
14475;DHT22;7323;50.848;4.334;2023-04-24T02:15:58;9.80;99.90
14475;DHT22;7323;50.848;4.334;2023-04-24T02:18:30;9.80;99.90
14475;DHT22;7323;50.848;4.334;2023-04-24T02:21:01;9.80;99.90
14475;DHT22;7323;50.848;4.334;2023-04-24T02:23:28;9.70;99.90
14475;DHT22;7323;50.848;4.334;2023-04-24T02:25:54;9.70;99.90
14475;DHT22;7323;50.848;4.334;2023-04-24T02:28:21;9.50;99.90
14475;DHT22;7323;50.848;4.334;2023-04-24T02:30:50;9.80;99.90
14475;DHT22;7323;50.848;4.334;2023-04-24T02:33:19;9.70;99.90
14475;DHT22;7323;50.848;4.334;2023-04-24T02:36:08;9.70;99.90
14475;DHT22;7323;50.848;4.334;2023-04-24T02:38:37;9.70;99.90
14475;DHT22;7323;50.848;4.334;2023-04-24T02:41:22;9.60;99.90
14475;DHT22;7323;50.848;4.334;2023-04-24T02:43:52;9.60;99.90
14475;DHT22;7323;50.848;4.334;2023-04-24T02:46:20;9.70;99.90
14475;DHT22;7323;50.848;4.334;2023-04-24T02:48:47;9.60;99.90
14475;DHT22;7323;50.848;4.334;2023-04-24T02:51:16;9.60;99.90
14475;DHT22;7323;50.848;4.334;2023-04-24T02:53:44;9.60;99.90
14475;DHT22;7323;50.848;4.334;2023-04-24T02:56:12;9.60;99.90
14475;DHT22;7323;50.848;4.334;2023-04-24T02:58:41;9.60;99.90
14475;DHT22;7323;50.848;4.334;2023-04-24T03:01:10;9.60;99.90
14475;DHT22;7323;50.848;4.334;2023-04-24T03:03:38;9.50;99.90
14475;DHT22;7323;50.848;4.334;2023-04-24T03:06:23;9.50;99.90
14475;DHT22;7323;50.848;4.334;2023-04-24T03:08:51;9.70;99.90
14475;DHT22;7323;50.848;4.334;2023-04-24T03:11:20;9.50;99.90
14475;DHT22;7323;50.848;4.334;2023-04-24T03:13:49;9.50;99.90
14475;DHT22;7323;50.848;4.334;2023-04-24T03:16:15;9.50;99.90
14475;DHT22;7323;50.848;4.334;2023-04-24T03:22:09;9.60;99.90
14475;DHT22;7323;50.848;4.334;2023-04-24T03:24:35;9.60;99.90
14475;DHT22;7323;50.848;4.334;2023-04-24T03:27:01;9.50;99.90
14475;DHT22;7323;50.848;4.334;2023-04-24T03:29:27;9.40;99.90
14475;DHT22;7323;50.848;4.334;2023-04-24T03:31:58;9.40;99.90
14475;DHT22;7323;50.848;4.334;2023-04-24T03:34:24;9.40;99.90
14475;DHT22;7323;50.848;4.334;2023-04-24T03:36:49;9.40;99.90
14475;DHT22;7323;50.848;4.334;2023-04-24T03:39:18;9.40;99.90
14475;DHT22;7323;50.848;4.334;2023-04-24T03:41:44;9.40;99.90
14475;DHT22;7323;50.848;4.334;2023-04-24T03:44:10;9.40;99.90
14475;DHT22;7323;50.848;4.334;2023-04-24T03:46:42;9.40;99.90
14475;DHT22;7323;50.848;4.334;2023-04-24T03:49:08;9.40;99.90
14475;DHT22;7323;50.848;4.334;2023-04-24T03:51:34;9.40;99.90
14475;DHT22;7323;50.848;4.334;2023-04-24T03:54:00;9.50;99.90
14475;DHT22;7323;50.848;4.334;2023-04-24T04:00:09;9.60;99.90
14475;DHT22;7323;50.848;4.334;2023-04-24T04:02:47;9.60;99.90
14475;DHT22;7323;50.848;4.334;2023-04-24T04:05:13;9.70;99.90
14475;DHT22;7323;50.848;4.334;2023-04-24T04:07:42;9.70;99.90
14475;DHT22;7323;50.848;4.334;2023-04-24T04:10:08;9.80;99.90
14475;DHT22;7323;50.848;4.334;2023-04-24T04:12:34;9.80;99.90
14475;DHT22;7323;50.848;4.334;2023-04-24T04:15:00;9.80;99.90
14475;DHT22;7323;50.848;4.334;2023-04-24T04:17:26;9.80;99.90
14475;DHT22;7323;50.848;4.334;2023-04-24T04:19:52;9.80;99.90
14475;DHT22;7323;50.848;4.334;2023-04-24T04:22:18;9.80;99.90
14475;DHT22;7323;50.848;4.334;2023-04-24T04:24:45;9.80;99.90
14475;DHT22;7323;50.848;4.334;2023-04-24T04:27:13;9.70;99.90
14475;DHT22;7323;50.848;4.334;2023-04-24T04:29:42;9.80;99.90
14475;DHT22;7323;50.848;4.334;2023-04-24T04:32:11;9.70;99.90
14475;DHT22;7323;50.848;4.334;2023-04-24T04:34:39;9.70;99.90
14475;DHT22;7323;50.848;4.334;2023-04-24T04:37:08;9.60;99.90
14475;DHT22;7323;50.848;4.334;2023-04-24T04:39:40;9.60;99.90
14475;DHT22;7323;50.848;4.334;2023-04-24T04:42:06;9.60;99.90
14475;DHT22;7323;50.848;4.334;2023-04-24T04:44:32;9.50;99.90
14475;DHT22;7323;50.848;4.334;2023-04-24T04:47:02;9.50;99.90
14475;DHT22;7323;50.848;4.334;2023-04-24T04:49:37;9.50;99.90
14475;DHT22;7323;50.848;4.334;2023-04-24T04:52:04;9.50;99.90
14475;DHT22;7323;50.848;4.334;2023-04-24T04:54:30;9.50;99.90
14475;DHT22;7323;50.848;4.334;2023-04-24T04:56:57;9.50;99.90
14475;DHT22;7323;50.848;4.334;2023-04-24T04:59:26;9.50;99.90
14475;DHT22;7323;50.848;4.334;2023-04-24T05:01:52;9.50;99.90
14475;DHT22;7323;50.848;4.334;2023-04-24T05:04:21;9.50;99.90
14475;DHT22;7323;50.848;4.334;2023-04-24T05:06:48;9.40;99.90
14475;DHT22;7323;50.848;4.334;2023-04-24T05:09:16;9.50;99.90
14475;DHT22;7323;50.848;4.334;2023-04-24T05:11:42;9.50;99.90
14475;DHT22;7323;50.848;4.334;2023-04-24T05:14:16;9.50;99.90
14475;DHT22;7323;50.848;4.334;2023-04-24T05:16:47;9.50;99.90
14475;DHT22;7323;50.848;4.334;2023-04-24T05:19:45;9.50;99.90
14475;DHT22;7323;50.848;4.334;2023-04-24T05:22:22;9.40;99.90
14475;DHT22;7323;50.848;4.334;2023-04-24T05:24:51;9.40;99.90
14475;DHT22;7323;50.848;4.334;2023-04-24T05:27:17;9.40;99.90
14475;DHT22;7323;50.848;4.334;2023-04-24T05:29:46;9.40;99.90
14475;DHT22;7323;50.848;4.334;2023-04-24T05:32:14;9.40;99.90
14475;DHT22;7323;50.848;4.334;2023-04-24T05:34:41;9.40;99.90
14475;DHT22;7323;50.848;4.334;2023-04-24T05:37:09;9.40;99.90
14475;DHT22;7323;50.848;4.334;2023-04-24T05:39:39;9.50;99.90
14475;DHT22;7323;50.848;4.334;2023-04-24T05:42:06;9.40;99.90
14475;DHT22;7323;50.848;4.334;2023-04-24T05:44:32;9.50;99.90
14475;DHT22;7323;50.848;4.334;2023-04-24T05:46:58;9.30;99.90
14475;DHT22;7323;50.848;4.334;2023-04-24T05:49:27;9.40;99.90
14475;DHT22;7323;50.848;4.334;2023-04-24T05:52:15;9.40;99.90
14475;DHT22;7323;50.848;4.334;2023-04-24T05:54:40;9.30;99.90
14475;DHT22;7323;50.848;4.334;2023-04-24T05:57:10;9.30;99.90
14475;DHT22;7323;50.848;4.334;2023-04-24T05:59:37;9.30;99.90
14475;DHT22;7323;50.848;4.334;2023-04-24T06:02:12;9.40;99.90
14475;DHT22;7323;50.848;4.334;2023-04-24T06:04:41;9.30;99.90
14475;DHT22;7323;50.848;4.334;2023-04-24T06:07:10;9.30;99.90
14475;DHT22;7323;50.848;4.334;2023-04-24T06:09:38;9.30;99.90
14475;DHT22;7323;50.848;4.334;2023-04-24T06:12:06;9.20;99.90
14475;DHT22;7323;50.848;4.334;2023-04-24T06:14:34;9.20;99.90
14475;DHT22;7323;50.848;4.334;2023-04-24T06:17:01;9.20;99.90
14475;DHT22;7323;50.848;4.334;2023-04-24T06:19:28;9.10;99.90
14475;DHT22;7323;50.848;4.334;2023-04-24T06:22:01;9.00;99.90
14475;DHT22;7323;50.848;4.334;2023-04-24T06:24:30;9.10;99.90
14475;DHT22;7323;50.848;4.334;2023-04-24T06:26:57;9.20;99.90
14475;DHT22;7323;50.848;4.334;2023-04-24T06:29:24;9.20;99.90
14475;DHT22;7323;50.848;4.334;2023-04-24T06:31:51;9.20;99.90
14475;DHT22;7323;50.848;4.334;2023-04-24T06:34:17;9.20;99.90
14475;DHT22;7323;50.848;4.334;2023-04-24T06:36:44;9.20;99.90
14475;DHT22;7323;50.848;4.334;2023-04-24T06:39:13;9.30;99.90
14475;DHT22;7323;50.848;4.334;2023-04-24T06:41:42;9.30;99.90
14475;DHT22;7323;50.848;4.334;2023-04-24T06:44:14;9.30;99.90
14475;DHT22;7323;50.848;4.334;2023-04-24T06:46:41;9.40;99.90
14475;DHT22;7323;50.848;4.334;2023-04-24T06:49:07;9.10;99.90
14475;DHT22;7323;50.848;4.334;2023-04-24T06:51:35;9.40;99.90
14475;DHT22;7323;50.848;4.334;2023-04-24T06:54:01;9.50;99.90
14475;DHT22;7323;50.848;4.334;2023-04-24T06:56:30;9.50;99.90
14475;DHT22;7323;50.848;4.334;2023-04-24T06:58:59;9.60;99.90
14475;DHT22;7323;50.848;4.334;2023-04-24T07:01:25;9.60;99.90
14475;DHT22;7323;50.848;4.334;2023-04-24T07:03:54;9.60;99.90
14475;DHT22;7323;50.848;4.334;2023-04-24T07:06:20;9.60;99.90
14475;DHT22;7323;50.848;4.334;2023-04-24T07:08:53;9.60;99.90
14475;DHT22;7323;50.848;4.334;2023-04-24T07:11:23;9.50;99.90
14475;DHT22;7323;50.848;4.334;2023-04-24T07:13:49;9.60;99.90
14475;DHT22;7323;50.848;4.334;2023-04-24T07:16:16;9.60;99.90
14475;DHT22;7323;50.848;4.334;2023-04-24T07:18:45;9.60;99.90
14475;DHT22;7323;50.848;4.334;2023-04-24T07:21:12;9.70;99.90
14475;DHT22;7323;50.848;4.334;2023-04-24T07:23:38;9.70;99.90
14475;DHT22;7323;50.848;4.334;2023-04-24T07:26:06;9.80;99.90
14475;DHT22;7323;50.848;4.334;2023-04-24T07:28:35;9.80;99.90
14475;DHT22;7323;50.848;4.334;2023-04-24T07:31:01;9.80;99.90
14475;DHT22;7323;50.848;4.334;2023-04-24T07:33:27;9.80;99.90
14475;DHT22;7323;50.848;4.334;2023-04-24T07:35:53;9.80;99.90
14475;DHT22;7323;50.848;4.334;2023-04-24T07:38:20;9.80;99.90
14475;DHT22;7323;50.848;4.334;2023-04-24T07:40:49;9.80;99.90
14475;DHT22;7323;50.848;4.334;2023-04-24T07:43:21;9.80;99.90
14475;DHT22;7323;50.848;4.334;2023-04-24T07:45:56;9.80;99.90
14475;DHT22;7323;50.848;4.334;2023-04-24T07:48:53;10.00;99.90
14475;DHT22;7323;50.848;4.334;2023-04-24T07:51:23;10.00;99.90
14475;DHT22;7323;50.848;4.334;2023-04-24T07:53:48;10.00;99.90
14475;DHT22;7323;50.848;4.334;2023-04-24T07:56:17;10.10;99.90
14475;DHT22;7323;50.848;4.334;2023-04-24T07:58:46;10.00;99.90
14475;DHT22;7323;50.848;4.334;2023-04-24T08:01:12;10.20;99.90
14475;DHT22;7323;50.848;4.334;2023-04-24T08:03:39;10.30;99.90
14475;DHT22;7323;50.848;4.334;2023-04-24T08:06:05;10.30;99.90
14475;DHT22;7323;50.848;4.334;2023-04-24T08:08:31;10.40;99.90
14475;DHT22;7323;50.848;4.334;2023-04-24T08:10:59;10.30;99.90
14475;DHT22;7323;50.848;4.334;2023-04-24T08:13:26;10.40;99.90
14475;DHT22;7323;50.848;4.334;2023-04-24T08:15:54;10.20;99.90
14475;DHT22;7323;50.848;4.334;2023-04-24T08:18:22;10.20;99.90
14475;DHT22;7323;50.848;4.334;2023-04-24T08:20:51;10.30;99.90
14475;DHT22;7323;50.848;4.334;2023-04-24T08:23:23;10.20;99.80
14475;DHT22;7323;50.848;4.334;2023-04-24T08:25:55;10.20;99.90
14475;DHT22;7323;50.848;4.334;2023-04-24T08:28:26;10.20;99.20
14475;DHT22;7323;50.848;4.334;2023-04-24T08:30:53;10.40;99.20
14475;DHT22;7323;50.848;4.334;2023-04-24T08:33:22;10.30;96.30
14475;DHT22;7323;50.848;4.334;2023-04-24T08:35:48;10.30;95.90
14475;DHT22;7323;50.848;4.334;2023-04-24T08:38:15;10.40;95.50
14475;DHT22;7323;50.848;4.334;2023-04-24T08:40:41;10.50;93.90
14475;DHT22;7323;50.848;4.334;2023-04-24T08:43:09;10.50;91.70
14475;DHT22;7323;50.848;4.334;2023-04-24T08:45:37;10.60;92.60
14475;DHT22;7323;50.848;4.334;2023-04-24T08:48:04;10.70;91.10
14475;DHT22;7323;50.848;4.334;2023-04-24T08:50:36;11.00;90.10
14475;DHT22;7323;50.848;4.334;2023-04-24T08:53:05;11.00;79.90
14475;DHT22;7323;50.848;4.334;2023-04-24T08:55:34;11.10;75.40
14475;DHT22;7323;50.848;4.334;2023-04-24T08:58:01;11.20;69.20
14475;DHT22;7323;50.848;4.334;2023-04-24T09:00:28;11.10;59.80
14475;DHT22;7323;50.848;4.334;2023-04-24T09:02:57;11.20;57.40
14475;DHT22;7323;50.848;4.334;2023-04-24T09:05:23;11.20;54.80
14475;DHT22;7323;50.848;4.334;2023-04-24T09:07:56;11.40;48.10
14475;DHT22;7323;50.848;4.334;2023-04-24T09:10:24;11.50;36.90
14475;DHT22;7323;50.848;4.334;2023-04-24T09:12:51;11.60;36.50
14475;DHT22;7323;50.848;4.334;2023-04-24T09:15:20;11.70;26.60
14475;DHT22;7323;50.848;4.334;2023-04-24T09:17:47;11.70;20.80
14475;DHT22;7323;50.848;4.334;2023-04-24T09:20:13;11.70;24.70
14475;DHT22;7323;50.848;4.334;2023-04-24T09:22:42;11.80;20.40
14475;DHT22;7323;50.848;4.334;2023-04-24T09:25:12;11.80;17.30
14475;DHT22;7323;50.848;4.334;2023-04-24T09:27:44;11.80;14.50
14475;DHT22;7323;50.848;4.334;2023-04-24T09:30:14;11.80;16.50
14475;DHT22;7323;50.848;4.334;2023-04-24T09:33:11;11.50;18.20
14475;DHT22;7323;50.848;4.334;2023-04-24T09:35:41;11.30;28.10
14475;DHT22;7323;50.848;4.334;2023-04-24T09:38:07;11.20;8.80
14475;DHT22;7323;50.848;4.334;2023-04-24T09:40:38;11.20;9.90
14475;DHT22;7323;50.848;4.334;2023-04-24T09:43:15;11.20;5.50
14475;DHT22;7323;50.848;4.334;2023-04-24T09:45:44;11.40;1.50
14475;DHT22;7323;50.848;4.334;2023-04-24T09:48:13;11.60;1.00
14475;DHT22;7323;50.848;4.334;2023-04-24T09:50:46;11.80;1.00
14475;DHT22;7323;50.848;4.334;2023-04-24T09:53:24;11.80;1.00
14475;DHT22;7323;50.848;4.334;2023-04-24T09:55:54;11.50;1.00
14475;DHT22;7323;50.848;4.334;2023-04-24T09:58:26;11.40;9.50
14475;DHT22;7323;50.848;4.334;2023-04-24T10:00:57;11.50;8.60
14475;DHT22;7323;50.848;4.334;2023-04-24T10:03:26;11.30;5.50
14475;DHT22;7323;50.848;4.334;2023-04-24T10:06:05;11.40;2.40
14475;DHT22;7323;50.848;4.334;2023-04-24T10:08:37;11.30;6.50
14475;DHT22;7323;50.848;4.334;2023-04-24T10:11:06;11.30;2.60
14475;DHT22;7323;50.848;4.334;2023-04-24T10:13:40;11.50;1.00
14475;DHT22;7323;50.848;4.334;2023-04-24T10:16:06;11.50;1.00
14475;DHT22;7323;50.848;4.334;2023-04-24T10:18:35;11.50;1.00
14475;DHT22;7323;50.848;4.334;2023-04-24T10:21:12;11.50;1.00
14475;DHT22;7323;50.848;4.334;2023-04-24T10:23:45;11.50;1.00
14475;DHT22;7323;50.848;4.334;2023-04-24T10:26:18;11.30;1.00
14475;DHT22;7323;50.848;4.334;2023-04-24T10:28:46;11.30;6.90
14475;DHT22;7323;50.848;4.334;2023-04-24T10:31:13;11.30;7.80
14475;DHT22;7323;50.848;4.334;2023-04-24T10:33:43;11.40;3.30
14475;DHT22;7323;50.848;4.334;2023-04-24T10:36:11;11.50;1.00
14475;DHT22;7323;50.848;4.334;2023-04-24T10:38:41;11.60;1.00
14475;DHT22;7323;50.848;4.334;2023-04-24T10:41:10;11.60;1.00
14475;DHT22;7323;50.848;4.334;2023-04-24T10:44:03;11.70;1.00
14475;DHT22;7323;50.848;4.334;2023-04-24T10:46:40;11.80;1.00
14475;DHT22;7323;50.848;4.334;2023-04-24T10:49:09;11.70;1.00
14475;DHT22;7323;50.848;4.334;2023-04-24T10:52:05;11.70;1.00
14475;DHT22;7323;50.848;4.334;2023-04-24T10:54:41;11.60;1.00
14475;DHT22;7323;50.848;4.334;2023-04-24T11:00:35;11.90;1.00
14475;DHT22;7323;50.848;4.334;2023-04-24T11:02:41;11.50;1.00
14475;DHT22;7323;50.848;4.334;2023-04-24T11:05:15;11.70;1.00
14475;DHT22;7323;50.848;4.334;2023-04-24T11:08:13;11.60;1.00
14475;DHT22;7323;50.848;4.334;2023-04-24T11:10:43;11.60;1.00
14475;DHT22;7323;50.848;4.334;2023-04-24T11:13:15;11.80;1.00
14475;DHT22;7323;50.848;4.334;2023-04-24T11:15:44;11.80;1.00
14475;DHT22;7323;50.848;4.334;2023-04-24T11:18:14;11.70;1.00
14475;DHT22;7323;50.848;4.334;2023-04-24T11:20:45;11.70;1.00
14475;DHT22;7323;50.848;4.334;2023-04-24T11:23:13;11.80;1.00
14475;DHT22;7323;50.848;4.334;2023-04-24T11:25:40;11.90;1.00
14475;DHT22;7323;50.848;4.334;2023-04-24T11:28:14;12.00;1.00
14475;DHT22;7323;50.848;4.334;2023-04-24T11:30:41;12.10;1.00
14475;DHT22;7323;50.848;4.334;2023-04-24T11:33:07;12.00;1.00
14475;DHT22;7323;50.848;4.334;2023-04-24T11:35:40;11.90;1.00
14475;DHT22;7323;50.848;4.334;2023-04-24T11:38:06;12.10;1.00
14475;DHT22;7323;50.848;4.334;2023-04-24T11:40:32;12.10;1.00
14475;DHT22;7323;50.848;4.334;2023-04-24T11:43:04;12.00;1.00
14475;DHT22;7323;50.848;4.334;2023-04-24T11:45:30;12.00;1.00
14475;DHT22;7323;50.848;4.334;2023-04-24T11:47:57;12.10;1.00
14475;DHT22;7323;50.848;4.334;2023-04-24T11:50:27;12.00;1.00
14475;DHT22;7323;50.848;4.334;2023-04-24T11:52:54;12.00;1.00
14475;DHT22;7323;50.848;4.334;2023-04-24T11:57:50;11.90;1.00
14475;DHT22;7323;50.848;4.334;2023-04-24T12:00:21;12.00;1.00
14475;DHT22;7323;50.848;4.334;2023-04-24T12:03:03;12.00;1.00
14475;DHT22;7323;50.848;4.334;2023-04-24T12:05:29;11.90;1.00
14475;DHT22;7323;50.848;4.334;2023-04-24T12:07:56;11.90;1.00
14475;DHT22;7323;50.848;4.334;2023-04-24T12:10:24;12.00;1.00
14475;DHT22;7323;50.848;4.334;2023-04-24T12:12:50;12.10;1.00
14475;DHT22;7323;50.848;4.334;2023-04-24T12:15:18;12.20;1.00
14475;DHT22;7323;50.848;4.334;2023-04-24T12:17:45;12.30;1.00
14475;DHT22;7323;50.848;4.334;2023-04-24T12:20:13;12.30;1.00
14475;DHT22;7323;50.848;4.334;2023-04-24T12:23:02;12.40;1.00
14475;DHT22;7323;50.848;4.334;2023-04-24T12:25:32;12.60;1.00
14475;DHT22;7323;50.848;4.334;2023-04-24T12:30:38;12.80;1.00
14475;DHT22;7323;50.848;4.334;2023-04-24T12:33:04;12.80;1.00
14475;DHT22;7323;50.848;4.334;2023-04-24T12:35:32;12.90;1.00
14475;DHT22;7323;50.848;4.334;2023-04-24T12:41:05;13.10;1.00
14475;DHT22;7323;50.848;4.334;2023-04-24T12:43:38;13.30;1.00
14475;DHT22;7323;50.848;4.334;2023-04-24T12:46:04;13.30;1.00
14475;DHT22;7323;50.848;4.334;2023-04-24T12:48:30;13.40;1.00
14475;DHT22;7323;50.848;4.334;2023-04-24T12:50:59;13.30;1.00
14475;DHT22;7323;50.848;4.334;2023-04-24T12:53:28;13.20;1.00
14475;DHT22;7323;50.848;4.334;2023-04-24T12:55:57;13.10;1.00
14475;DHT22;7323;50.848;4.334;2023-04-24T12:58:23;12.70;1.00
14475;DHT22;7323;50.848;4.334;2023-04-24T13:00:50;12.70;1.00
14475;DHT22;7323;50.848;4.334;2023-04-24T13:03:16;12.70;1.00
14475;DHT22;7323;50.848;4.334;2023-04-24T13:05:43;12.90;1.00
14475;DHT22;7323;50.848;4.334;2023-04-24T13:08:09;13.20;1.00
14475;DHT22;7323;50.848;4.334;2023-04-24T13:10:35;13.30;1.00
14475;DHT22;7323;50.848;4.334;2023-04-24T13:13:04;13.40;1.00
14475;DHT22;7323;50.848;4.334;2023-04-24T13:15:32;13.40;1.00
14475;DHT22;7323;50.848;4.334;2023-04-24T13:17:58;13.20;1.00
14475;DHT22;7323;50.848;4.334;2023-04-24T13:20:24;13.20;1.00
14475;DHT22;7323;50.848;4.334;2023-04-24T13:22:49;13.30;1.00
14475;DHT22;7323;50.848;4.334;2023-04-24T13:25:15;13.20;1.00
14475;DHT22;7323;50.848;4.334;2023-04-24T13:27:42;13.20;1.00
14475;DHT22;7323;50.848;4.334;2023-04-24T13:30:08;13.30;1.00
14475;DHT22;7323;50.848;4.334;2023-04-24T13:32:36;13.30;1.00
14475;DHT22;7323;50.848;4.334;2023-04-24T13:35:02;13.20;1.00
14475;DHT22;7323;50.848;4.334;2023-04-24T13:37:28;12.80;1.00
14475;DHT22;7323;50.848;4.334;2023-04-24T13:39:54;13.10;1.00
14475;DHT22;7323;50.848;4.334;2023-04-24T13:42:23;13.10;1.00
14475;DHT22;7323;50.848;4.334;2023-04-24T13:44:49;13.30;1.00
14475;DHT22;7323;50.848;4.334;2023-04-24T13:47:16;13.20;1.00
14475;DHT22;7323;50.848;4.334;2023-04-24T13:49:42;13.30;1.00
14475;DHT22;7323;50.848;4.334;2023-04-24T13:52:08;13.10;1.00
14475;DHT22;7323;50.848;4.334;2023-04-24T13:54:35;13.10;1.00
14475;DHT22;7323;50.848;4.334;2023-04-24T13:57:01;13.30;1.00
14475;DHT22;7323;50.848;4.334;2023-04-24T13:59:28;13.30;1.00
14475;DHT22;7323;50.848;4.334;2023-04-24T14:01:53;13.40;1.00
14475;DHT22;7323;50.848;4.334;2023-04-24T14:04:21;13.40;1.00
14475;DHT22;7323;50.848;4.334;2023-04-24T14:06:47;13.30;1.00
14475;DHT22;7323;50.848;4.334;2023-04-24T14:09:13;13.40;1.00
14475;DHT22;7323;50.848;4.334;2023-04-24T14:11:40;13.50;1.00
14475;DHT22;7323;50.848;4.334;2023-04-24T14:14:06;13.30;1.00
14475;DHT22;7323;50.848;4.334;2023-04-24T14:16:34;13.20;1.00
14475;DHT22;7323;50.848;4.334;2023-04-24T14:19:00;13.20;1.00
14475;DHT22;7323;50.848;4.334;2023-04-24T14:21:26;13.20;1.00
14475;DHT22;7323;50.848;4.334;2023-04-24T14:23:52;13.10;1.00
14475;DHT22;7323;50.848;4.334;2023-04-24T14:26:17;12.90;1.00
14475;DHT22;7323;50.848;4.334;2023-04-24T14:28:43;12.80;1.00
14475;DHT22;7323;50.848;4.334;2023-04-24T14:31:11;12.80;1.00
14475;DHT22;7323;50.848;4.334;2023-04-24T14:33:37;12.80;1.00
14475;DHT22;7323;50.848;4.334;2023-04-24T14:36:04;12.90;1.00
14475;DHT22;7323;50.848;4.334;2023-04-24T14:38:38;12.90;1.00
14475;DHT22;7323;50.848;4.334;2023-04-24T14:41:03;12.80;1.00
14475;DHT22;7323;50.848;4.334;2023-04-24T14:43:35;12.80;1.00
14475;DHT22;7323;50.848;4.334;2023-04-24T14:46:01;12.70;1.00
14475;DHT22;7323;50.848;4.334;2023-04-24T14:48:28;12.90;1.00
14475;DHT22;7323;50.848;4.334;2023-04-24T14:50:54;12.80;1.00
14475;DHT22;7323;50.848;4.334;2023-04-24T14:53:20;12.90;1.00
14475;DHT22;7323;50.848;4.334;2023-04-24T14:55:46;12.90;1.00
14475;DHT22;7323;50.848;4.334;2023-04-24T14:58:12;12.90;1.00
14475;DHT22;7323;50.848;4.334;2023-04-24T15:00:38;13.00;1.00
14475;DHT22;7323;50.848;4.334;2023-04-24T15:03:03;13.10;1.00
14475;DHT22;7323;50.848;4.334;2023-04-24T15:05:29;13.10;1.00
14475;DHT22;7323;50.848;4.334;2023-04-24T15:07:55;13.20;1.00
14475;DHT22;7323;50.848;4.334;2023-04-24T15:10:21;13.20;1.00
14475;DHT22;7323;50.848;4.334;2023-04-24T15:12:48;13.10;1.00
14475;DHT22;7323;50.848;4.334;2023-04-24T15:15:14;13.10;1.00
14475;DHT22;7323;50.848;4.334;2023-04-24T15:17:44;12.90;1.00
14475;DHT22;7323;50.848;4.334;2023-04-24T15:20:11;12.90;1.00
14475;DHT22;7323;50.848;4.334;2023-04-24T15:22:38;13.00;1.00
14475;DHT22;7323;50.848;4.334;2023-04-24T15:25:13;13.00;1.00
14475;DHT22;7323;50.848;4.334;2023-04-24T15:27:48;12.90;1.00
14475;DHT22;7323;50.848;4.334;2023-04-24T15:30:14;12.60;1.00
14475;DHT22;7323;50.848;4.334;2023-04-24T15:32:40;12.70;1.00
14475;DHT22;7323;50.848;4.334;2023-04-24T15:35:06;12.90;1.00
14475;DHT22;7323;50.848;4.334;2023-04-24T15:37:33;12.90;1.00
14475;DHT22;7323;50.848;4.334;2023-04-24T15:40:01;12.80;1.00
14475;DHT22;7323;50.848;4.334;2023-04-24T15:42:30;12.60;1.00
14475;DHT22;7323;50.848;4.334;2023-04-24T15:44:56;12.60;1.00
14475;DHT22;7323;50.848;4.334;2023-04-24T15:47:39;12.60;1.00
14475;DHT22;7323;50.848;4.334;2023-04-24T15:50:08;12.60;1.00
14475;DHT22;7323;50.848;4.334;2023-04-24T15:52:35;12.60;1.00
14475;DHT22;7323;50.848;4.334;2023-04-24T15:55:02;12.60;1.00
14475;DHT22;7323;50.848;4.334;2023-04-24T15:57:29;12.60;1.00
14475;DHT22;7323;50.848;4.334;2023-04-24T15:59:58;12.60;1.00
14475;DHT22;7323;50.848;4.334;2023-04-24T16:02:27;12.50;1.00
14475;DHT22;7323;50.848;4.334;2023-04-24T16:04:53;12.50;1.00
14475;DHT22;7323;50.848;4.334;2023-04-24T16:07:20;12.40;1.00
14475;DHT22;7323;50.848;4.334;2023-04-24T16:09:48;12.30;1.00
14475;DHT22;7323;50.848;4.334;2023-04-24T16:12:15;12.20;1.00
14475;DHT22;7323;50.848;4.334;2023-04-24T16:14:41;12.20;1.00
14475;DHT22;7323;50.848;4.334;2023-04-24T16:17:09;12.30;1.00
14475;DHT22;7323;50.848;4.334;2023-04-24T16:19:35;12.30;1.00
14475;DHT22;7323;50.848;4.334;2023-04-24T16:22:01;12.20;1.00
14475;DHT22;7323;50.848;4.334;2023-04-24T16:24:28;12.10;1.00
14475;DHT22;7323;50.848;4.334;2023-04-24T16:26:55;12.10;1.00
14475;DHT22;7323;50.848;4.334;2023-04-24T16:29:24;12.10;1.00